Time;durP1;ratioP1;P1;durP2;ratioP2;P2;SDS_P1;SDS_P2;PMS_P1;PMS_P2;Temp;Humidity;BMP_temperature;BMP_pressure;BME280_temperature;BME280_humidity;BME280_pressure;Samples;Min_cycle;Max_cycle;Signal;HPM_P1;HPM_P2
2021/10/26 00:01:06;;;;;;;;;;;6.10;1.00;;;;;;5109841;28;19908;-73
2021/10/26 00:03:31;;;;;;;;;;;6.00;1.00;;;;;;5108171;28;20384;-74
2021/10/26 00:05:57;;;;;;;;;;;5.90;1.00;;;;;;5110002;28;19912;-74
2021/10/26 00:08:22;;;;;;;;;;;5.90;1.00;;;;;;5109878;28;20364;-73
2021/10/26 00:10:48;;;;;;;;;;;5.90;1.00;;;;;;5110208;28;19931;-73
2021/10/26 00:13:14;;;;;;;;;;;5.80;1.00;;;;;;5109063;28;19908;-74
2021/10/26 00:15:39;;;;;;;;;;;5.80;1.00;;;;;;5109595;28;19912;-74
2021/10/26 00:18:05;;;;;;;;;;;5.70;1.00;;;;;;5108361;28;20014;-73
2021/10/26 00:20:31;;;;;;;;;;;5.70;1.00;;;;;;5109722;28;20229;-73
2021/10/26 00:23:01;;;;;;;;;;;5.70;1.00;;;;;;5093739;28;20006;-73
2021/10/26 00:25:27;;;;;;;;;;;5.70;1.00;;;;;;5093781;28;19916;-73
2021/10/26 00:27:52;;;;;;;;;;;5.70;1.00;;;;;;5089434;28;20368;-72
2021/10/26 00:30:18;;;;;;;;;;;5.70;1.00;;;;;;5088920;28;19913;-74
2021/10/26 00:32:44;;;;;;;;;;;5.70;1.00;;;;;;5088373;28;19915;-73
2021/10/26 00:35:10;;;;;;;;;;;5.70;1.00;;;;;;5088359;28;19908;-74
2021/10/26 00:37:36;;;;;;;;;;;5.60;1.00;;;;;;5089697;28;20440;-73
2021/10/26 00:40:03;;;;;;;;;;;5.60;1.00;;;;;;5097111;28;20036;-73
2021/10/26 00:42:28;;;;;;;;;;;5.60;1.00;;;;;;5101513;28;20400;-74
2021/10/26 00:44:54;;;;;;;;;;;5.50;1.00;;;;;;5111760;28;19915;-73
2021/10/26 00:47:19;;;;;;;;;;;5.50;1.00;;;;;;5115097;28;20317;-74
2021/10/26 00:49:45;;;;;;;;;;;5.50;1.00;;;;;;5115338;28;19983;-73
2021/10/26 00:52:11;;;;;;;;;;;5.40;1.00;;;;;;5115445;28;19911;-74
2021/10/26 00:54:37;;;;;;;;;;;5.40;1.00;;;;;;5116358;28;19919;-74
2021/10/26 00:57:03;;;;;;;;;;;5.30;1.00;;;;;;5115513;28;20292;-73
2021/10/26 00:59:28;;;;;;;;;;;5.30;1.00;;;;;;5114435;28;19920;-74
2021/10/26 01:01:54;;;;;;;;;;;5.30;1.00;;;;;;5116077;28;19934;-74
2021/10/26 01:04:19;;;;;;;;;;;5.30;1.00;;;;;;5097038;28;19915;-74
2021/10/26 01:06:46;;;;;;;;;;;5.30;1.00;;;;;;5117108;28;19908;-74
2021/10/26 01:09:11;;;;;;;;;;;5.20;1.00;;;;;;5115631;28;19939;-74
2021/10/26 01:11:37;;;;;;;;;;;5.20;1.00;;;;;;5114317;28;19958;-73
2021/10/26 01:14:03;;;;;;;;;;;5.20;1.00;;;;;;5111043;28;20636;-74
2021/10/26 01:16:29;;;;;;;;;;;5.10;1.00;;;;;;5112815;28;19908;-74
2021/10/26 01:18:55;;;;;;;;;;;5.10;1.00;;;;;;5111376;28;19912;-74
2021/10/26 01:21:20;;;;;;;;;;;5.10;1.00;;;;;;5106507;28;19933;-73
2021/10/26 01:23:46;;;;;;;;;;;5.10;1.00;;;;;;5100858;28;19999;-73
2021/10/26 01:26:12;;;;;;;;;;;5.00;1.00;;;;;;5092567;28;19912;-75
2021/10/26 01:28:37;;;;;;;;;;;5.00;1.00;;;;;;5091487;28;19912;-74
2021/10/26 01:31:03;;;;;;;;;;;4.90;1.00;;;;;;5092353;28;19912;-74
2021/10/26 01:33:29;;;;;;;;;;;4.90;1.00;;;;;;5071808;28;20334;-73
2021/10/26 01:35:54;;;;;;;;;;;4.90;1.00;;;;;;5092360;28;20307;-73
2021/10/26 01:38:24;;;;;;;;;;;4.90;1.00;;;;;;5092264;28;19912;-74
2021/10/26 01:40:49;;;;;;;;;;;4.90;1.00;;;;;;5072004;28;20388;-74
2021/10/26 01:43:15;;;;;;;;;;;4.90;1.00;;;;;;5070788;28;19912;-74
2021/10/26 01:45:40;;;;;;;;;;;4.90;1.00;;;;;;5071293;28;19919;-74
2021/10/26 01:48:06;;;;;;;;;;;4.90;1.00;;;;;;5071050;28;19919;-73
2021/10/26 01:50:31;;;;;;;;;;;4.90;1.00;;;;;;5071398;28;20003;-73
2021/10/26 01:52:57;;;;;;;;;;;4.90;1.00;;;;;;5070932;28;20399;-73
2021/10/26 01:55:23;;;;;;;;;;;4.90;1.00;;;;;;5071725;28;19912;-73
2021/10/26 01:57:49;;;;;;;;;;;4.90;1.00;;;;;;5053225;28;19924;-73
2021/10/26 02:00:18;;;;;;;;;;;4.90;1.00;;;;;;5071082;28;19948;-73
2021/10/26 02:02:44;;;;;;;;;;;4.90;1.00;;;;;;5070444;28;20270;-73
2021/10/26 02:05:09;;;;;;;;;;;4.90;1.00;;;;;;5052591;28;19908;-74
2021/10/26 02:07:35;;;;;;;;;;;4.90;1.00;;;;;;5071469;28;20292;-74
2021/10/26 02:10:01;;;;;;;;;;;4.90;1.00;;;;;;5071283;28;20447;-74
2021/10/26 02:12:27;;;;;;;;;;;4.90;1.00;;;;;;5070586;28;19919;-73
2021/10/26 02:14:52;;;;;;;;;;;4.90;1.00;;;;;;5072686;28;19957;-73
2021/10/26 02:17:18;;;;;;;;;;;5.00;1.00;;;;;;5102256;28;20090;-73
2021/10/26 02:19:43;;;;;;;;;;;5.00;1.00;;;;;;5110971;28;19915;-74
2021/10/26 02:22:09;;;;;;;;;;;4.90;1.00;;;;;;5097990;28;19908;-79
2021/10/26 02:24:35;;;;;;;;;;;4.90;1.00;;;;;;5100868;28;20429;-74
2021/10/26 02:27:00;;;;;;;;;;;4.90;1.00;;;;;;5091548;28;19916;-74
2021/10/26 02:29:26;;;;;;;;;;;4.90;1.00;;;;;;5090965;28;19912;-74
2021/10/26 02:31:52;;;;;;;;;;;5.00;1.00;;;;;;5091139;28;19912;-74
2021/10/26 02:34:18;;;;;;;;;;;5.00;1.00;;;;;;5090815;28;19908;-73
2021/10/26 02:36:44;;;;;;;;;;;5.00;1.00;;;;;;5091670;28;19991;-74
2021/10/26 02:39:11;;;;;;;;;;;4.90;1.00;;;;;;5083696;28;20074;-74
2021/10/26 02:41:37;;;;;;;;;;;4.90;1.00;;;;;;5071198;28;19912;-73
2021/10/26 02:44:03;;;;;;;;;;;4.90;1.00;;;;;;5069682;28;20421;-73
2021/10/26 02:46:28;;;;;;;;;;;4.80;1.00;;;;;;5070722;28;19973;-74
2021/10/26 02:48:54;;;;;;;;;;;4.80;1.00;;;;;;5069289;28;19915;-74
2021/10/26 02:51:19;;;;;;;;;;;4.70;1.00;;;;;;5070851;28;19912;-74
2021/10/26 02:53:45;;;;;;;;;;;4.70;1.00;;;;;;5069693;28;19920;-73
2021/10/26 02:56:10;;;;;;;;;;;4.80;1.00;;;;;;5070842;28;19923;-73
2021/10/26 02:58:36;;;;;;;;;;;4.80;1.00;;;;;;5070065;28;20411;-73
2021/10/26 03:01:02;;;;;;;;;;;4.80;1.00;;;;;;5070365;28;20274;-73
2021/10/26 03:03:28;;;;;;;;;;;4.80;1.00;;;;;;5068348;28;19912;-72
2021/10/26 03:05:54;;;;;;;;;;;4.80;1.00;;;;;;5070494;28;19912;-73
2021/10/26 03:08:19;;;;;;;;;;;4.80;1.00;;;;;;5069931;28;19920;-73
2021/10/26 03:10:45;;;;;;;;;;;4.80;1.00;;;;;;5070190;28;20285;-73
2021/10/26 03:13:10;;;;;;;;;;;4.80;1.00;;;;;;5050996;28;20511;-73
2021/10/26 03:15:36;;;;;;;;;;;4.80;1.00;;;;;;5069880;28;19936;-74
2021/10/26 03:18:02;;;;;;;;;;;4.80;1.00;;;;;;5069518;28;19958;-73
2021/10/26 03:20:27;;;;;;;;;;;4.80;1.00;;;;;;5069628;28;20003;-73
2021/10/26 03:22:53;;;;;;;;;;;4.70;1.00;;;;;;5092372;28;19915;-73
2021/10/26 03:25:19;;;;;;;;;;;4.70;1.00;;;;;;5095533;28;19918;-74
2021/10/26 03:27:45;;;;;;;;;;;4.70;1.00;;;;;;5090503;28;20303;-74
2021/10/26 03:30:11;;;;;;;;;;;4.70;1.00;;;;;;5089530;28;19957;-74
2021/10/26 03:32:37;;;;;;;;;;;4.70;1.00;;;;;;5089158;28;19912;-73
2021/10/26 03:35:03;;;;;;;;;;;4.70;1.00;;;;;;5089269;28;19908;-74
2021/10/26 03:37:28;;;;;;;;;;;4.70;1.00;;;;;;5089664;28;20334;-73
2021/10/26 03:39:55;;;;;;;;;;;4.70;1.00;;;;;;5095275;28;19927;-74
2021/10/26 03:42:21;;;;;;;;;;;4.90;1.00;;;;;;5097493;28;19908;-73
2021/10/26 03:44:47;;;;;;;;;;;4.90;1.00;;;;;;5089410;28;19912;-73
2021/10/26 03:47:12;;;;;;;;;;;5.10;1.00;;;;;;5089271;28;19908;-73
2021/10/26 03:49:38;;;;;;;;;;;5.20;1.00;;;;;;5088790;28;19912;-73
2021/10/26 03:52:03;;;;;;;;;;;5.20;1.00;;;;;;5088991;28;19912;-73
2021/10/26 03:54:29;;;;;;;;;;;5.30;1.00;;;;;;5089065;28;20497;-73
2021/10/26 03:56:55;;;;;;;;;;;5.30;1.00;;;;;;5090704;28;19915;-74
2021/10/26 03:59:21;;;;;;;;;;;5.40;1.00;;;;;;5089159;28;19916;-72
2021/10/26 04:01:47;;;;;;;;;;;5.40;1.00;;;;;;5089052;28;19961;-72
2021/10/26 04:04:13;;;;;;;;;;;5.50;1.00;;;;;;5088412;28;20373;-73
2021/10/26 04:06:42;;;;;;;;;;;5.60;1.00;;;;;;5089852;28;19909;-73
2021/10/26 04:09:10;;;;;;;;;;;5.60;1.00;;;;;;5089353;28;19919;-74
2021/10/26 04:14:24;;;;;;;;;;;5.70;1.00;;;;;;5078630;28;19959;-74
2021/10/26 04:16:50;;;;;;;;;;;5.70;1.00;;;;;;5089636;28;19947;-73
2021/10/26 04:19:15;;;;;;;;;;;5.80;1.00;;;;;;5088421;28;20261;-74
2021/10/26 04:21:40;;;;;;;;;;;5.80;1.00;;;;;;5093099;28;19953;-73
2021/10/26 04:24:06;;;;;;;;;;;5.90;1.00;;;;;;5102235;28;20593;-74
2021/10/26 04:26:32;;;;;;;;;;;6.00;1.00;;;;;;5098616;28;19960;-74
2021/10/26 04:28:57;;;;;;;;;;;6.00;1.00;;;;;;5097258;28;19948;-73
2021/10/26 04:31:23;;;;;;;;;;;6.00;1.00;;;;;;5092699;28;20142;-74
2021/10/26 04:33:48;;;;;;;;;;;6.10;1.00;;;;;;5091259;28;20722;-73
2021/10/26 04:36:14;;;;;;;;;;;6.10;1.00;;;;;;5096413;28;19992;-73
2021/10/26 04:38:39;;;;;;;;;;;6.10;1.00;;;;;;5107990;28;19988;-74
2021/10/26 04:41:08;;;;;;;;;;;6.20;1.00;;;;;;5110277;28;19995;-74
2021/10/26 04:43:36;;;;;;;;;;;6.20;1.00;;;;;;5105051;28;19912;-73
2021/10/26 04:46:03;;;;;;;;;;;6.20;1.00;;;;;;5110520;28;19936;-74
2021/10/26 04:48:28;;;;;;;;;;;6.20;1.00;;;;;;5099668;28;19996;-75
2021/10/26 04:50:54;;;;;;;;;;;6.20;1.00;;;;;;5095963;28;20237;-74
2021/10/26 04:53:20;;;;;;;;;;;6.30;1.00;;;;;;5089112;28;19962;-76
2021/10/26 04:55:46;;;;;;;;;;;6.40;1.00;;;;;;5089800;28;20566;-76
2021/10/26 04:58:11;;;;;;;;;;;6.50;1.00;;;;;;5085230;28;19916;-75
2021/10/26 05:00:37;;;;;;;;;;;6.40;1.00;;;;;;5095337;28;19948;-76
2021/10/26 05:03:03;;;;;;;;;;;6.50;1.00;;;;;;5074128;28;20332;-75
2021/10/26 05:05:28;;;;;;;;;;;6.50;1.00;;;;;;5072823;28;20015;-75
2021/10/26 05:07:54;;;;;;;;;;;6.50;1.00;;;;;;5075312;28;19920;-76
2021/10/26 05:10:19;;;;;;;;;;;6.50;1.00;;;;;;5087356;28;19961;-74
2021/10/26 05:12:45;;;;;;;;;;;6.50;1.00;;;;;;5086542;28;20042;-73
2021/10/26 05:15:13;;;;;;;;;;;6.40;1.00;;;;;;5087176;28;19943;-74
2021/10/26 05:17:40;;;;;;;;;;;6.50;1.00;;;;;;5094436;28;19908;-74
2021/10/26 05:20:07;;;;;;;;;;;6.50;1.00;;;;;;5067705;28;20321;-72
2021/10/26 05:22:33;;;;;;;;;;;6.50;1.00;;;;;;5077206;28;19912;-73
2021/10/26 05:24:58;;;;;;;;;;;6.50;1.00;;;;;;5086747;28;20018;-74
2021/10/26 05:27:24;;;;;;;;;;;6.50;1.00;;;;;;5086218;28;19920;-74
2021/10/26 05:29:50;;;;;;;;;;;6.50;1.00;;;;;;5089425;28;19908;-73
2021/10/26 05:32:15;;;;;;;;;;;6.50;1.00;;;;;;5084912;28;19923;-72
2021/10/26 05:34:41;;;;;;;;;;;6.50;1.00;;;;;;5059816;28;19923;-71
2021/10/26 05:37:07;;;;;;;;;;;6.50;1.00;;;;;;5080563;28;19915;-72
2021/10/26 05:39:32;;;;;;;;;;;6.50;1.00;;;;;;5059770;28;20370;-73
2021/10/26 05:41:58;;;;;;;;;;;6.50;1.00;;;;;;5077362;28;19916;-73
2021/10/26 05:44:24;;;;;;;;;;;6.50;1.00;;;;;;5078961;28;19908;-73
2021/10/26 05:46:49;;;;;;;;;;;6.50;1.00;;;;;;5078761;28;20014;-73
2021/10/26 05:49:15;;;;;;;;;;;6.50;1.00;;;;;;5077415;28;20426;-72
2021/10/26 05:51:41;;;;;;;;;;;6.50;1.00;;;;;;5077587;28;19969;-72
2021/10/26 05:54:06;;;;;;;;;;;6.60;1.00;;;;;;5079056;28;19947;-72
2021/10/26 05:56:31;;;;;;;;;;;6.60;1.00;;;;;;5080088;28;19929;-73
2021/10/26 05:58:57;;;;;;;;;;;6.60;1.00;;;;;;5078198;28;19916;-73
2021/10/26 06:01:23;;;;;;;;;;;6.60;1.00;;;;;;5077599;28;19947;-73
2021/10/26 06:03:49;;;;;;;;;;;6.60;1.00;;;;;;5079290;28;19913;-72
2021/10/26 06:06:15;;;;;;;;;;;6.60;1.00;;;;;;5060814;28;20399;-75
2021/10/26 06:08:40;;;;;;;;;;;6.70;1.00;;;;;;5079966;28;19999;-73
2021/10/26 06:11:11;;;;;;;;;;;6.70;1.00;;;;;;5076919;28;19917;-74
2021/10/26 06:13:42;;;;;;;;;;;6.70;1.00;;;;;;5075145;28;20568;-73
2021/10/26 06:16:08;;;;;;;;;;;6.70;1.00;;;;;;5076624;28;19912;-73
2021/10/26 06:18:34;;;;;;;;;;;6.70;1.00;;;;;;5078010;28;20249;-73
2021/10/26 06:20:59;;;;;;;;;;;6.70;1.00;;;;;;5078129;28;19947;-74
2021/10/26 06:23:25;;;;;;;;;;;6.70;1.00;;;;;;5079913;28;20866;-74
2021/10/26 06:25:51;;;;;;;;;;;6.80;1.00;;;;;;5078850;28;19908;-73
2021/10/26 06:28:17;;;;;;;;;;;6.80;1.00;;;;;;5057756;28;20022;-76
2021/10/26 06:30:42;;;;;;;;;;;6.80;1.00;;;;;;5073038;28;19920;-72
2021/10/26 06:33:08;;;;;;;;;;;6.80;1.00;;;;;;5078552;28;20458;-74
2021/10/26 06:35:34;;;;;;;;;;;6.90;1.00;;;;;;5081121;28;19924;-72
2021/10/26 06:37:59;;;;;;;;;;;7.00;1.00;;;;;;5079518;28;20018;-74
2021/10/26 06:40:25;;;;;;;;;;;7.10;1.00;;;;;;5081192;28;20449;-74
2021/10/26 06:42:51;;;;;;;;;;;7.10;1.00;;;;;;5102982;28;20356;-75
2021/10/26 06:45:17;;;;;;;;;;;7.20;1.00;;;;;;5112035;28;19998;-71
2021/10/26 06:47:42;;;;;;;;;;;7.20;1.00;;;;;;5112851;28;19957;-72
2021/10/26 06:50:08;;;;;;;;;;;7.30;1.00;;;;;;5111807;28;19911;-73
2021/10/26 06:52:35;;;;;;;;;;;7.30;1.00;;;;;;5091944;28;19911;-73
2021/10/26 06:55:01;;;;;;;;;;;7.30;1.00;;;;;;5093803;28;19915;-73
2021/10/26 06:57:29;;;;;;;;;;;7.30;1.00;;;;;;5115059;28;19919;-74
2021/10/26 06:59:55;;;;;;;;;;;7.30;1.00;;;;;;5118044;28;20574;-74
2021/10/26 07:02:20;;;;;;;;;;;7.30;1.00;;;;;;5092634;28;19919;-73
2021/10/26 07:04:46;;;;;;;;;;;7.40;1.00;;;;;;5117665;28;19981;-75
2021/10/26 07:07:11;;;;;;;;;;;7.50;1.00;;;;;;5112556;28;19930;-74
2021/10/26 07:09:38;;;;;;;;;;;7.60;1.00;;;;;;5093202;28;20359;-74
2021/10/26 07:12:04;;;;;;;;;;;7.60;1.00;;;;;;5110409;28;19994;-74
2021/10/26 07:14:30;;;;;;;;;;;7.60;1.00;;;;;;5110655;28;19912;-74
2021/10/26 07:16:55;;;;;;;;;;;7.60;1.00;;;;;;5111072;28;20241;-74
2021/10/26 07:19:21;;;;;;;;;;;7.60;1.00;;;;;;5106582;28;19912;-74
2021/10/26 07:21:46;;;;;;;;;;;7.70;1.00;;;;;;5091557;28;19912;-72
2021/10/26 07:24:13;;;;;;;;;;;7.70;1.00;;;;;;5099652;28;19995;-73
2021/10/26 07:26:40;;;;;;;;;;;7.80;1.00;;;;;;5090586;28;19930;-75
2021/10/26 07:29:06;;;;;;;;;;;7.80;1.00;;;;;;5090490;28;20030;-74
2021/10/26 07:31:31;;;;;;;;;;;7.80;1.00;;;;;;5090724;28;20015;-74
2021/10/26 07:33:58;;;;;;;;;;;7.90;1.00;;;;;;5089169;28;19994;-74
2021/10/26 07:36:30;;;;;;;;;;;8.00;1.00;;;;;;5091126;28;19912;-73
2021/10/26 07:39:08;;;;;;;;;;;8.10;1.00;;;;;;5085472;28;20372;-75
2021/10/26 07:41:33;;;;;;;;;;;8.20;1.00;;;;;;5073505;28;19920;-73
2021/10/26 07:43:59;;;;;;;;;;;8.40;1.00;;;;;;5069419;28;19908;-73
2021/10/26 07:46:25;;;;;;;;;;;8.50;1.00;;;;;;5070243;28;20369;-73
2021/10/26 07:48:50;;;;;;;;;;;8.60;1.00;;;;;;5069542;28;19919;-73
2021/10/26 07:51:16;;;;;;;;;;;8.70;1.00;;;;;;5071204;28;19919;-73
2021/10/26 07:53:41;;;;;;;;;;;8.80;1.00;;;;;;5068932;28;19908;-72
2021/10/26 07:56:09;;;;;;;;;;;8.90;1.00;;;;;;5070364;28;19912;-74
2021/10/26 07:58:36;;;;;;;;;;;9.10;1.00;;;;;;5051413;28;20786;-75
2021/10/26 08:01:02;;;;;;;;;;;9.20;1.00;;;;;;5051938;28;19916;-73
2021/10/26 08:03:27;;;;;;;;;;;9.40;1.00;;;;;;5067800;28;19924;-74
2021/10/26 08:05:53;;;;;;;;;;;9.50;99.90;;;;;;5069744;28;19969;-73
2021/10/26 08:08:19;;;;;;;;;;;9.60;99.90;;;;;;5051339;28;19916;-74
2021/10/26 08:10:46;;;;;;;;;;;9.60;71.50;;;;;;5068949;28;19913;-73
2021/10/26 08:13:12;;;;;;;;;;;9.70;99.90;;;;;;5068492;28;20305;-74
2021/10/26 08:15:38;;;;;;;;;;;9.90;99.90;;;;;;5078953;28;19908;-74
2021/10/26 08:18:03;;;;;;;;;;;10.20;51.90;;;;;;5101366;28;19912;-75
2021/10/26 08:20:29;;;;;;;;;;;10.50;1.00;;;;;;5095434;28;19954;-73
2021/10/26 08:22:55;;;;;;;;;;;10.80;1.00;;;;;;5092684;28;19908;-72
2021/10/26 08:25:24;;;;;;;;;;;11.10;22.10;;;;;;5076158;28;19912;-72
2021/10/26 08:27:52;;;;;;;;;;;11.20;99.90;;;;;;5089773;28;19908;-75
2021/10/26 08:33:16;;;;;;;;;;;11.60;99.90;;;;;;5088420;28;20283;-73
2021/10/26 08:35:42;;;;;;;;;;;11.70;1.00;;;;;;5088790;28;19962;-73
2021/10/26 08:38:08;;;;;;;;;;;11.90;99.90;;;;;;5089429;28;19913;-72
2021/10/26 08:40:35;;;;;;;;;;;11.90;99.90;;;;;;5070665;28;19914;-72
2021/10/26 08:43:03;;;;;;;;;;;11.90;99.90;;;;;;5068436;28;19973;-73
2021/10/26 08:45:30;;;;;;;;;;;11.70;99.90;;;;;;5068534;28;20489;-73
2021/10/26 08:47:55;;;;;;;;;;;11.60;1.00;;;;;;5068737;28;19953;-73
2021/10/26 08:50:21;;;;;;;;;;;11.70;1.00;;;;;;5068318;28;20582;-73
2021/10/26 08:52:47;;;;;;;;;;;11.90;1.00;;;;;;5068713;28;19908;-74
2021/10/26 08:55:17;;;;;;;;;;;12.20;99.90;;;;;;5068075;28;20233;-73
2021/10/26 08:57:43;;;;;;;;;;;12.50;1.00;;;;;;5069567;28;19909;-73
2021/10/26 09:00:10;;;;;;;;;;;12.90;1.00;;;;;;5069373;28;19917;-74
2021/10/26 09:02:41;;;;;;;;;;;17.10;1.00;;;;;;5050232;28;19908;-74
2021/10/26 09:05:08;;;;;;;;;;;21.30;99.90;;;;;;5068623;28;19918;-74
2021/10/26 09:07:37;;;;;;;;;;;25.50;99.90;;;;;;5072784;28;19951;-74
2021/10/26 09:10:13;;;;;;;;;;;23.90;99.90;;;;;;5054493;28;20460;-73
2021/10/26 09:17:50;;;;;;;;;;;23.40;99.90;;;;;;5073337;28;19927;-73
2021/10/26 09:20:18;;;;;;;;;;;25.30;99.90;;;;;;5065302;28;19946;-73
2021/10/26 09:22:47;;;;;;;;;;;26.40;99.90;;;;;;5076819;28;19956;-74
2021/10/26 09:25:14;;;;;;;;;;;28.60;99.90;;;;;;5080772;28;19999;-77
2021/10/26 09:27:40;;;;;;;;;;;31.20;99.90;;;;;;5092637;28;19908;-74
2021/10/26 09:30:09;;;;;;;;;;;32.20;99.90;;;;;;5092509;28;19919;-75
2021/10/26 09:32:46;;;;;;;;;;;33.60;99.90;;;;;;5091520;28;19919;-73
2021/10/26 09:35:16;;;;;;;;;;;33.80;99.90;;;;;;5073708;28;19912;-76
2021/10/26 09:37:45;;;;;;;;;;;34.50;99.90;;;;;;5074501;28;20222;-75
2021/10/26 09:40:11;;;;;;;;;;;34.80;99.90;;;;;;5082101;28;19912;-74
2021/10/26 09:42:44;;;;;;;;;;;35.30;99.90;;;;;;5105248;28;19951;-73
2021/10/26 09:45:12;;;;;;;;;;;34.30;99.90;;;;;;5112360;28;19914;-73
2021/10/26 09:47:38;;;;;;;;;;;32.70;99.90;;;;;;5093047;28;19959;-73
2021/10/26 09:50:08;;;;;;;;;;;33.50;99.90;;;;;;5093291;28;20301;-75
2021/10/26 09:52:34;;;;;;;;;;;34.10;99.90;;;;;;5112126;28;19921;-73
2021/10/26 09:55:13;;;;;;;;;;;33.70;99.90;;;;;;5112471;28;19972;-77
2021/10/26 09:57:40;;;;;;;;;;;33.70;99.90;;;;;;5112148;28;19940;-74
2021/10/26 10:00:06;;;;;;;;;;;32.60;97.20;;;;;;5111616;28;20614;-73
2021/10/26 10:02:32;;;;;;;;;;;32.80;93.10;;;;;;5111503;28;19912;-75
2021/10/26 10:04:59;;;;;;;;;;;32.70;90.20;;;;;;5111545;28;19908;-74
2021/10/26 10:07:32;;;;;;;;;;;32.50;83.20;;;;;;5111995;28;19918;-73
2021/10/26 10:09:59;;;;;;;;;;;31.50;74.00;;;;;;5112364;28;19911;-74
2021/10/26 10:12:26;;;;;;;;;;;31.50;70.90;;;;;;5111751;28;19915;-74
2021/10/26 10:14:54;;;;;;;;;;;30.50;64.60;;;;;;5112077;28;20341;-73
2021/10/26 10:17:23;;;;;;;;;;;28.60;62.50;;;;;;5111859;28;19998;-74
2021/10/26 10:19:50;;;;;;;;;;;28.50;64.20;;;;;;5103132;28;20297;-72
2021/10/26 10:22:15;;;;;;;;;;;28.30;57.80;;;;;;5091451;28;19915;-75
2021/10/26 10:24:42;;;;;;;;;;;28.10;56.40;;;;;;5101064;28;19912;-74
2021/10/26 10:27:08;;;;;;;;;;;28.30;56.20;;;;;;5073954;28;19996;-75
2021/10/26 10:29:34;;;;;;;;;;;28.20;55.20;;;;;;5090968;28;19908;-75
2021/10/26 10:32:00;;;;;;;;;;;28.00;55.80;;;;;;5090819;28;20311;-72
2021/10/26 10:34:26;;;;;;;;;;;28.20;54.80;;;;;;5090579;28;20011;-73
2021/10/26 10:37:01;;;;;;;;;;;28.00;54.70;;;;;;5073497;28;20010;-74
2021/10/26 10:39:32;;;;;;;;;;;28.10;54.00;;;;;;5091159;28;19912;-73
2021/10/26 10:42:21;;;;;;;;;;;28.00;52.70;;;;;;5072403;28;19943;-72
2021/10/26 10:44:47;;;;;;;;;;;27.10;51.40;;;;;;5072611;28;19990;-73
2021/10/26 10:47:31;;;;;;;;;;;26.30;51.90;;;;;;5090925;28;20031;-73
2021/10/26 10:49:57;;;;;;;;;;;25.80;54.60;;;;;;5090268;28;20065;-74
2021/10/26 10:52:28;;;;;;;;;;;25.60;55.00;;;;;;5072440;28;19977;-74
2021/10/26 10:54:54;;;;;;;;;;;25.80;56.50;;;;;;5090963;28;19955;-73
2021/10/26 10:57:33;;;;;;;;;;;25.60;57.30;;;;;;5091333;28;20004;-75
2021/10/26 11:00:15;;;;;;;;;;;25.60;59.20;;;;;;5089790;28;19916;-73
2021/10/26 11:02:41;;;;;;;;;;;25.30;59.50;;;;;;5089916;28;20327;-74
2021/10/26 11:05:27;;;;;;;;;;;24.80;60.30;;;;;;5089637;28;19955;-74
2021/10/26 11:07:54;;;;;;;;;;;24.30;62.60;;;;;;5072813;28;20261;-77
2021/10/26 11:10:20;;;;;;;;;;;23.60;63.80;;;;;;5090210;28;20365;-74
2021/10/26 11:12:46;;;;;;;;;;;23.10;65.80;;;;;;5071602;28;19931;-73
2021/10/26 11:15:17;;;;;;;;;;;22.40;68.00;;;;;;5087714;28;19965;-73
2021/10/26 11:17:43;;;;;;;;;;;21.80;71.80;;;;;;5102037;28;19908;-75
2021/10/26 11:20:11;;;;;;;;;;;21.30;75.20;;;;;;5099335;28;20396;-75
2021/10/26 11:22:45;;;;;;;;;;;20.90;80.30;;;;;;5091521;28;19908;-75
2021/10/26 11:25:21;;;;;;;;;;;20.40;86.00;;;;;;5096632;28;19912;-75
2021/10/26 11:27:47;;;;;;;;;;;19.70;91.00;;;;;;5090412;28;20348;-75
2021/10/26 11:30:28;;;;;;;;;;;19.00;94.10;;;;;;5088905;28;19995;-75
2021/10/26 11:33:08;;;;;;;;;;;18.50;97.90;;;;;;5088719;28;19985;-74
2021/10/26 11:35:49;;;;;;;;;;;18.20;99.90;;;;;;5070538;28;20321;-74
2021/10/26 11:38:17;;;;;;;;;;;17.90;99.90;;;;;;5089662;28;20231;-74
2021/10/26 11:40:52;;;;;;;;;;;18.10;99.90;;;;;;5070845;28;19920;-74
2021/10/26 11:43:19;;;;;;;;;;;18.10;99.90;;;;;;5069821;28;20009;-74
2021/10/26 11:45:57;;;;;;;;;;;18.10;99.90;;;;;;5069940;28;19942;-74
2021/10/26 11:48:38;;;;;;;;;;;18.10;99.90;;;;;;5069471;28;19908;-74
2021/10/26 11:51:17;;;;;;;;;;;17.90;99.90;;;;;;5070395;28;19915;-75
2021/10/26 11:53:43;;;;;;;;;;;17.70;99.90;;;;;;5070573;28;19944;-75
2021/10/26 11:56:21;;;;;;;;;;;17.70;99.90;;;;;;5072651;28;20372;-75
2021/10/26 11:59:13;;;;;;;;;;;17.90;99.90;;;;;;5084416;28;19978;-73
2021/10/26 12:01:45;;;;;;;;;;;18.00;99.90;;;;;;5077899;28;19916;-74
2021/10/26 12:04:20;;;;;;;;;;;18.30;99.90;;;;;;5080401;28;19947;-75
2021/10/26 12:06:57;;;;;;;;;;;18.30;99.90;;;;;;5062077;28;20082;-75
2021/10/26 12:09:24;;;;;;;;;;;18.20;99.90;;;;;;5080239;28;19912;-74
2021/10/26 12:11:51;;;;;;;;;;;17.90;99.90;;;;;;5080036;28;19920;-74
2021/10/26 12:14:24;;;;;;;;;;;17.60;99.90;;;;;;5058245;28;19912;-74
2021/10/26 12:17:02;;;;;;;;;;;17.10;99.90;;;;;;5058503;28;19942;-74
2021/10/26 12:19:28;;;;;;;;;;;16.90;99.90;;;;;;5082181;28;19957;-74
2021/10/26 12:21:56;;;;;;;;;;;16.50;99.90;;;;;;5079354;28;19951;-73
2021/10/26 12:24:26;;;;;;;;;;;16.10;99.90;;;;;;5093801;28;19912;-74
2021/10/26 12:27:02;;;;;;;;;;;15.80;99.90;;;;;;5088808;28;20003;-74
2021/10/26 12:29:43;;;;;;;;;;;15.50;99.90;;;;;;5076733;22;20020;-76
2021/10/26 12:32:12;;;;;;;;;;;15.40;99.90;;;;;;5009308;28;19910;-75
2021/10/26 12:34:46;;;;;;;;;;;15.50;1.00;;;;;;5027229;28;19948;-76
2021/10/26 12:37:22;;;;;;;;;;;15.50;1.00;;;;;;5029481;28;19913;-76
2021/10/26 12:39:51;;;;;;;;;;;15.60;99.90;;;;;;5028814;28;19956;-76
2021/10/26 12:42:37;;;;;;;;;;;15.60;99.90;;;;;;5031388;28;19914;-75
2021/10/26 12:45:07;;;;;;;;;;;15.70;99.90;;;;;;5031661;28;19913;-74
2021/10/26 12:47:51;;;;;;;;;;;15.80;99.90;;;;;;5032828;28;19940;-75
2021/10/26 12:50:48;;;;;;;;;;;15.90;99.90;;;;;;5031908;28;19932;-74
2021/10/26 12:53:17;;;;;;;;;;;16.00;99.90;;;;;;5018640;28;19917;-75
2021/10/26 12:55:44;;;;;;;;;;;16.00;99.90;;;;;;5032540;28;19910;-74
2021/10/26 12:58:28;;;;;;;;;;;16.10;99.90;;;;;;5032687;28;19916;-76
2021/10/26 13:00:54;;;;;;;;;;;16.30;99.90;;;;;;5031713;28;19917;-74
2021/10/26 13:03:23;;;;;;;;;;;16.50;99.90;;;;;;5031279;28;19916;-73
2021/10/26 13:06:04;;;;;;;;;;;16.60;99.90;;;;;;5032198;28;19909;-75
2021/10/26 13:08:29;;;;;;;;;;;16.70;99.90;;;;;;5031954;28;19956;-74
2021/10/26 13:10:55;;;;;;;;;;;16.80;99.90;;;;;;5032040;28;19961;-75
2021/10/26 13:13:21;;;;;;;;;;;16.80;99.90;;;;;;5031355;28;19909;-74
2021/10/26 13:15:47;;;;;;;;;;;16.80;99.90;;;;;;5032340;28;20227;-75
2021/10/26 13:18:22;;;;;;;;;;;16.90;99.90;;;;;;5031912;28;20234;-75
2021/10/26 13:20:51;;;;;;;;;;;16.80;99.90;;;;;;5031410;28;20323;-73
2021/10/26 13:23:19;;;;;;;;;;;16.70;99.90;;;;;;5030889;28;19959;-74
2021/10/26 13:25:46;;;;;;;;;;;16.60;99.90;;;;;;5032079;28;19916;-75
2021/10/26 13:28:19;;;;;;;;;;;16.60;99.90;;;;;;5031937;28;19957;-74
2021/10/26 13:30:53;;;;;;;;;;;16.60;99.90;;;;;;5031246;28;20290;-73
2021/10/26 13:33:19;;;;;;;;;;;16.60;99.90;;;;;;5030137;28;20258;-73
2021/10/26 13:35:45;;;;;;;;;;;16.70;99.90;;;;;;5031103;28;19920;-73
2021/10/26 13:38:15;;;;;;;;;;;16.80;99.90;;;;;;5031483;28;19913;-73
2021/10/26 13:40:44;;;;;;;;;;;16.90;99.90;;;;;;5031374;28;19913;-73
2021/10/26 13:43:10;;;;;;;;;;;16.80;99.90;;;;;;5030280;28;19913;-74
2021/10/26 13:45:38;;;;;;;;;;;16.80;99.90;;;;;;5031016;28;19920;-74
2021/10/26 13:48:04;;;;;;;;;;;16.80;99.90;;;;;;5031125;28;19916;-74
2021/10/26 13:50:29;;;;;;;;;;;16.80;99.90;;;;;;5030933;28;20273;-73
2021/10/26 13:52:55;;;;;;;;;;;16.80;99.90;;;;;;5030424;28;19914;-73
2021/10/26 13:55:20;;;;;;;;;;;16.70;99.90;;;;;;5030517;28;20382;-75
2021/10/26 13:57:46;;;;;;;;;;;16.70;99.90;;;;;;5031342;28;19957;-72
2021/10/26 14:00:13;;;;;;;;;;;16.60;99.90;;;;;;5030551;28;20007;-73
2021/10/26 14:02:45;;;;;;;;;;;16.60;99.90;;;;;;5029932;28;19932;-72
2021/10/26 14:05:11;;;;;;;;;;;16.60;99.90;;;;;;5029768;28;19913;-75
2021/10/26 14:07:38;;;;;;;;;;;16.60;99.90;;;;;;5031178;28;19932;-73
2021/10/26 14:10:04;;;;;;;;;;;16.70;99.90;;;;;;5030665;28;20342;-73
2021/10/26 14:12:30;;;;;;;;;;;16.80;99.90;;;;;;5030493;28;19909;-72
2021/10/26 14:14:56;;;;;;;;;;;16.80;99.90;;;;;;5030128;28;20476;-72
2021/10/26 14:17:21;;;;;;;;;;;16.90;99.90;;;;;;5030157;28;19916;-72
2021/10/26 14:19:47;;;;;;;;;;;16.80;99.90;;;;;;5029796;28;20408;-73
2021/10/26 14:22:13;;;;;;;;;;;16.70;99.90;;;;;;5030431;28;19956;-74
2021/10/26 14:24:38;;;;;;;;;;;16.50;99.90;;;;;;5030293;28;20322;-73
2021/10/26 14:27:04;;;;;;;;;;;16.30;99.90;;;;;;5030779;28;19913;-73
2021/10/26 14:29:29;;;;;;;;;;;16.20;99.90;;;;;;5029766;28;19975;-74
2021/10/26 14:31:55;;;;;;;;;;;16.20;99.90;;;;;;5029577;28;20004;-73
2021/10/26 14:34:22;;;;;;;;;;;16.00;99.90;;;;;;5029588;28;19962;-74
2021/10/26 14:37:06;;;;;;;;;;;15.80;99.90;;;;;;5030653;28;19916;-74
2021/10/26 14:53:35;;;;;;;;;;;14.90;1.00;;;;;;5029936;28;19919;-73
2021/10/26 14:56:15;;;;;;;;;;;14.80;1.00;;;;;;5030239;28;19914;-72
2021/10/26 14:58:41;;;;;;;;;;;14.80;1.00;;;;;;5030778;28;19923;-73